RJTY(METAR)
07/17 14:56
METAR RJTY 170556Z AUTO 14007KT 10SM FEW035 28/19 A2995 RMK AO2
SLP139 T02750190 10281 20219 57013 FZRANO $=
戻る
トップページへ戻る
IMOC Co,.Ltd.